createdAt,value
2019-04-20T00:04:20.716Z,38.53
2019-04-20T00:09:24.635Z,38.97
2019-04-20T00:14:29.628Z,39.06
2019-04-20T00:19:37.481Z,39.42
2019-04-20T00:24:42.323Z,39.81
2019-04-20T00:30:05.438Z,40.16
2019-04-20T00:34:53.941Z,40.46
2019-04-20T00:39:59.469Z,40.91
2019-04-20T00:45:12.024Z,41.15
2019-04-20T00:50:28.345Z,41.36
2019-04-20T00:55:17.026Z,41.62
2019-04-20T01:00:37.105Z,41.89
2019-04-20T01:05:55.747Z,42.40
2019-04-20T01:10:47.222Z,42.89
2019-04-20T01:15:55.372Z,43.17
2019-04-20T01:20:53.659Z,43.50
2019-04-20T01:26:03.977Z,43.77
2019-04-20T01:31:14.696Z,44.21
2019-04-20T01:36:34.967Z,44.44
2019-04-20T01:41:16.122Z,44.83
2019-04-20T01:46:23.499Z,45.21
2019-04-20T01:51:30.498Z,45.82
2019-04-20T01:56:47.451Z,46.21
2019-04-20T02:02:14.295Z,46.72
2019-04-20T02:07:18.294Z,47.09
2019-04-20T02:12:26.082Z,47.49
2019-04-20T02:17:36.950Z,47.61
2019-04-20T02:22:46.472Z,47.74
2019-04-20T02:27:45.620Z,47.87
2019-04-20T02:33:28.888Z,48.20
2019-04-20T02:49:12.938Z,49.08
2019-04-20T02:54:18.819Z,49.11
2019-04-20T02:59:45.029Z,49.39
2019-04-20T03:03:52.648Z,49.95
2019-04-20T03:09:15.129Z,50.52
2019-04-20T03:14:18.599Z,51.29
2019-04-20T03:19:20.679Z,51.71
2019-04-20T03:24:38.742Z,52.29
2019-04-20T03:30:03.713Z,52.85
2019-04-20T03:35:12.172Z,53.52
2019-04-20T03:40:09.894Z,53.99
2019-04-20T03:45:06.005Z,54.49
2019-04-20T03:50:33.236Z,55.25
2019-04-20T03:55:51.348Z,55.64
2019-04-20T04:00:59.755Z,56.36
2019-04-20T04:06:07.838Z,57.13
2019-04-20T04:11:16.256Z,57.65
2019-04-20T04:16:08.807Z,57.55
2019-04-20T04:21:18.261Z,57.64
2019-04-20T04:26:34.354Z,58.08
2019-04-20T04:31:45.592Z,58.33
2019-04-20T04:36:50.200Z,58.64
2019-04-20T04:42:01.831Z,58.60
2019-04-20T04:46:46.435Z,57.34
2019-04-20T04:51:54.936Z,58.05
2019-04-20T04:56:52.578Z,58.81
2019-04-20T05:01:58.373Z,58.99
2019-04-20T05:07:16.811Z,59.09
2019-04-20T05:12:14.982Z,59.45
2019-04-20T05:17:34.274Z,59.27
2019-04-20T05:22:46.873Z,59.65
2019-04-20T05:27:56.415Z,59.19
2019-04-20T05:32:51.443Z,59.51
2019-04-20T05:38:15.822Z,59.02
2019-04-20T05:43:27.504Z,58.94
2019-04-20T05:48:33.652Z,58.75
2019-04-20T05:53:45.757Z,58.66
2019-04-20T05:58:52.327Z,57.99
2019-04-20T06:03:49.014Z,57.84
2019-04-20T06:09:08.553Z,57.35
2019-04-20T06:14:08.190Z,56.56
2019-04-20T06:24:43.779Z,55.89
2019-04-20T06:29:41.315Z,55.28
2019-04-20T06:35:02.727Z,54.40
2019-04-20T06:39:54.651Z,53.90
2019-04-20T06:45:02.057Z,53.51
2019-04-20T06:50:12.792Z,53.13
2019-04-20T06:55:14.166Z,52.54
2019-04-20T07:00:25.733Z,51.79
2019-04-20T07:05:34.668Z,51.27
2019-04-20T07:10:40.641Z,50.61
2019-04-20T07:15:54.188Z,50.09
2019-04-20T07:21:23.101Z,49.47
2019-04-20T07:26:32.231Z,48.93
2019-04-20T07:31:30.847Z,48.28
2019-04-20T07:36:40.449Z,48.46
2019-04-20T07:41:57.244Z,48.16
2019-04-20T07:47:01.529Z,48.38
2019-04-20T07:51:39.120Z,47.94
2019-04-20T07:57:01.828Z,47.57
2019-04-20T08:02:35.526Z,47.07
2019-04-20T08:07:13.663Z,46.96
2019-04-20T08:12:56.966Z,46.80
2019-04-20T08:18:01.178Z,46.51
2019-04-20T08:23:12.914Z,45.90
2019-04-20T08:28:21.404Z,45.53
2019-04-20T08:33:44.745Z,45.60
2019-04-20T08:39:08.278Z,44.71
2019-04-20T08:43:58.702Z,44.69
2019-04-20T08:48:55.898Z,44.55
2019-04-20T08:54:03.319Z,44.65
2019-04-20T08:58:50.622Z,43.30
2019-04-20T09:04:04.716Z,43.19
2019-04-20T09:09:34.740Z,42.85
2019-04-20T09:14:21.346Z,42.57
2019-04-20T09:19:36.670Z,42.63
2019-04-20T09:24:51.493Z,41.67
2019-04-20T09:29:54.694Z,40.45
2019-04-20T09:35:01.072Z,40.37
2019-04-20T09:40:32.200Z,40.60
2019-04-20T09:45:27.753Z,40.08
2019-04-20T09:50:40.920Z,38.76
2019-04-20T09:55:42.906Z,37.23
2019-04-20T10:00:59.524Z,36.20
2019-04-20T10:05:49.658Z,36.59
2019-04-20T10:10:54.395Z,34.52
2019-04-20T10:16:00.023Z,33.66
2019-04-20T10:21:05.481Z,34.39
2019-04-20T10:26:09.717Z,33.54
2019-04-20T10:31:14.728Z,32.66
2019-04-20T10:36:37.586Z,31.22
2019-04-20T10:41:49.171Z,30.82
2019-04-20T10:46:49.063Z,28.75
2019-04-20T10:51:53.650Z,28.13
2019-04-20T10:56:57.877Z,26.64
2019-04-20T11:02:02.077Z,25.93
2019-04-20T11:07:06.367Z,23.71
2019-04-20T11:12:10.756Z,23.42
2019-04-20T11:17:16.223Z,23.37
2019-04-20T11:22:22.137Z,24.21
2019-04-20T11:27:27.956Z,22.60
2019-04-20T11:32:32.297Z,21.19
2019-04-20T11:37:37.312Z,20.94
2019-04-20T11:42:41.701Z,20.49
2019-04-20T11:47:47.293Z,19.12
2019-04-20T11:52:52.988Z,18.95
2019-04-20T11:57:58.275Z,18.50
2019-04-20T12:03:31.123Z,17.90
2019-04-20T12:08:29.273Z,17.81
2019-04-20T12:13:34.508Z,17.34
2019-04-20T12:18:38.874Z,18.11
2019-04-20T12:23:44.430Z,17.35
2019-04-20T12:28:49.714Z,20.31
2019-04-20T12:33:54.778Z,17.14
2019-04-20T12:38:59.281Z,16.86
2019-04-20T12:44:03.875Z,15.83
2019-04-20T12:49:09.430Z,16.05
2019-04-20T12:54:14.511Z,15.79
2019-04-20T12:59:18.831Z,16.23
2019-04-20T13:04:23.046Z,16.46
2019-04-20T13:09:34.576Z,16.27
2019-04-20T13:15:08.550Z,15.98
2019-04-20T13:20:14.117Z,16.44
2019-04-20T13:25:19.075Z,15.74
2019-04-20T13:30:23.904Z,15.30
2019-04-20T13:35:28.262Z,14.67
2019-04-20T13:40:33.440Z,15.08
2019-04-20T13:45:37.685Z,14.92
2019-04-20T13:50:42.299Z,14.27
2019-04-20T13:55:47.711Z,14.17
2019-04-20T14:01:08.500Z,15.04
2019-04-20T14:06:14.308Z,14.39
2019-04-20T14:11:18.626Z,14.06
2019-04-20T14:16:23.241Z,13.66
2019-04-20T14:21:27.919Z,14.48
2019-04-20T14:26:32.995Z,13.71
2019-04-20T14:31:38.084Z,13.80
2019-04-20T14:36:42.272Z,13.63
2019-04-20T14:41:46.644Z,12.94
2019-04-20T14:46:51.686Z,13.37
2019-04-20T14:51:58.104Z,13.39
2019-04-20T14:57:03.322Z,13.81
2019-04-20T15:02:12.968Z,13.69
2019-04-20T15:07:18.368Z,13.84
2019-04-20T15:12:35.970Z,13.66
2019-04-20T15:17:37.620Z,13.64
2019-04-20T15:22:45.559Z,13.26
2019-04-20T15:27:50.077Z,13.68
2019-04-20T15:32:54.678Z,13.27
2019-04-20T15:37:59.466Z,14.75
2019-04-20T15:43:11.797Z,15.46
2019-04-20T15:48:10.007Z,15.72
2019-04-20T15:53:15.599Z,15.92
2019-04-20T15:58:20.668Z,16.16
2019-04-20T16:03:29.701Z,16.08
2019-04-20T16:08:41.950Z,16.97
2019-04-20T16:13:50.398Z,17.41
2019-04-20T16:18:52.831Z,17.88
2019-04-20T16:24:01.938Z,18.31
2019-04-20T16:29:06.783Z,18.80
2019-04-20T16:34:13.592Z,18.80
2019-04-20T16:39:18.483Z,18.79
2019-04-20T16:44:23.138Z,19.04
2019-04-20T16:49:28.706Z,19.50
2019-04-20T16:54:33.010Z,19.71
2019-04-20T16:59:40.112Z,19.77
2019-04-20T17:04:43.220Z,20.43
2019-04-20T17:09:48.027Z,21.21
2019-04-20T17:14:53.589Z,21.75
2019-04-20T17:19:57.887Z,22.16
2019-04-20T17:25:02.231Z,22.63
2019-04-20T17:30:27.291Z,23.00
2019-04-20T17:35:43.455Z,23.41
2019-04-20T17:40:55.904Z,23.63
2019-04-20T17:45:55.705Z,23.66
2019-04-20T17:51:15.361Z,23.91
2019-04-20T17:55:57.179Z,24.35
2019-04-20T18:01:26.835Z,24.75
2019-04-20T18:06:45.322Z,25.42
2019-04-20T18:11:40.345Z,25.68
2019-04-20T18:16:56.587Z,26.05
2019-04-20T18:21:55.944Z,26.31
2019-04-20T18:27:26.431Z,26.60
2019-04-20T18:32:31.500Z,27.01
2019-04-20T18:37:36.460Z,27.29
2019-04-20T18:42:43.785Z,27.52
2019-04-20T18:48:07.852Z,27.94
2019-04-20T18:52:53.944Z,28.27
2019-04-20T18:57:59.436Z,28.70
2019-04-20T19:03:11.998Z,28.98
2019-04-20T19:08:13.587Z,29.47
2019-04-20T19:13:29.267Z,29.67
2019-04-20T19:18:49.496Z,29.71
2019-04-20T19:23:53.442Z,29.81
2019-04-20T19:28:53.906Z,29.74
2019-04-20T19:34:13.116Z,29.83
2019-04-20T19:39:17.261Z,30.23
2019-04-20T19:44:17.161Z,30.90
2019-04-20T19:49:25.386Z,31.43
2019-04-20T19:54:41.472Z,31.86
2019-04-20T19:59:33.862Z,32.14
2019-04-20T20:04:32.237Z,32.38
2019-04-20T20:09:41.853Z,32.75
2019-04-20T20:14:46.010Z,33.06
2019-04-20T20:20:14.934Z,33.32
2019-04-20T20:24:54.898Z,33.58
2019-04-20T20:30:10.234Z,33.81
2019-04-20T20:35:14.070Z,34.05
2019-04-20T20:40:18.981Z,34.43
2019-04-20T20:45:26.236Z,34.72
2019-04-20T20:50:42.876Z,35.01
2019-04-20T20:55:40.232Z,35.36
2019-04-20T21:00:53.190Z,35.71
2019-04-20T21:05:42.630Z,35.94
2019-04-20T21:10:48.093Z,36.01
2019-04-20T21:16:02.418Z,35.76
2019-04-20T21:21:15.093Z,35.92
2019-04-20T21:26:12.736Z,36.27
2019-04-20T21:31:20.412Z,36.45
2019-04-20T21:36:25.922Z,36.09
2019-04-20T21:41:27.191Z,36.24
2019-04-20T21:46:39.912Z,36.56
2019-04-20T21:51:48.974Z,36.67
2019-04-20T21:56:49.847Z,36.86
2019-04-20T22:01:58.582Z,36.93
2019-04-20T22:06:56.202Z,36.77
2019-04-20T22:12:00.534Z,36.78
2019-04-20T22:17:05.474Z,36.90
2019-04-20T22:22:18.574Z,36.96
2019-04-20T22:27:21.150Z,36.98
2019-04-20T22:32:22.585Z,37.10
2019-04-20T22:37:35.304Z,36.84
2019-04-20T22:42:47.473Z,37.01
2019-04-20T22:47:46.236Z,36.92
2019-04-20T22:53:06.721Z,36.90
2019-04-20T22:58:04.579Z,37.07
2019-04-20T23:03:02.969Z,36.98
2019-04-20T23:08:08.585Z,37.05
2019-04-20T23:13:13.749Z,36.97
2019-04-20T23:18:18.189Z,37.07
2019-04-20T23:23:26.089Z,37.02
2019-04-20T23:28:29.141Z,37.05
2019-04-20T23:33:33.798Z,36.79
2019-04-20T23:38:38.984Z,36.77
2019-04-20T23:43:54.896Z,36.49
2019-04-20T23:49:22.124Z,36.46
2019-04-20T23:54:25.590Z,36.46
2019-04-20T23:59:32.395Z,36.55
